sensor_id;sensor_type;location;lat;lon;timestamp;pressure;altitude;pressure_sealevel;temperature;humidity
55656;BME280;41530;52.382;5.270;2023-02-02T00:01:29;102271.81;;;13.75;53.04
55656;BME280;41530;52.382;5.270;2023-02-02T00:03:56;102277.13;;;13.75;53.19
55656;BME280;41530;52.382;5.270;2023-02-02T00:06:25;102286.84;;;13.74;52.92
55656;BME280;41530;52.382;5.270;2023-02-02T00:08:54;102277.13;;;13.75;53.27
55656;BME280;41530;52.382;5.270;2023-02-02T00:11:22;102273.91;;;13.70;53.14
55656;BME280;41530;52.382;5.270;2023-02-02T00:13:49;102281.84;;;13.70;53.37
55656;BME280;41530;52.382;5.270;2023-02-02T00:18:53;102279.47;;;13.65;53.09
55656;BME280;41530;52.382;5.270;2023-02-02T00:21:19;102283.66;;;13.69;53.14
55656;BME280;41530;52.382;5.270;2023-02-02T00:23:46;102282.78;;;13.69;52.98
55656;BME280;41530;52.382;5.270;2023-02-02T00:26:14;102275.81;;;13.68;53.12
55656;BME280;41530;52.382;5.270;2023-02-02T00:28:41;102270.88;;;13.62;52.81
55656;BME280;41530;52.382;5.270;2023-02-02T00:31:08;102279.47;;;13.65;52.96
55656;BME280;41530;52.382;5.270;2023-02-02T00:33:35;102280.41;;;13.64;52.83
55656;BME280;41530;52.382;5.270;2023-02-02T00:36:02;102269.25;;;13.59;52.74
55656;BME280;41530;52.382;5.270;2023-02-02T00:38:30;102281.53;;;13.60;52.83
55656;BME280;41530;52.382;5.270;2023-02-02T00:40:57;102277.94;;;13.61;52.99
55656;BME280;41530;52.382;5.270;2023-02-02T00:43:24;102277.19;;;13.59;52.96
55656;BME280;41530;52.382;5.270;2023-02-02T00:45:51;102281.63;;;13.59;52.82
55656;BME280;41530;52.382;5.270;2023-02-02T00:48:17;102285.03;;;13.61;52.75
55656;BME280;41530;52.382;5.270;2023-02-02T00:50:44;102291.25;;;13.60;52.58
55656;BME280;41530;52.382;5.270;2023-02-02T00:53:11;102296.44;;;13.61;52.74
55656;BME280;41530;52.382;5.270;2023-02-02T00:55:38;102294.75;;;13.60;52.77
55656;BME280;41530;52.382;5.270;2023-02-02T00:58:05;102294.84;;;13.59;52.63
55656;BME280;41530;52.382;5.270;2023-02-02T01:00:32;102294.94;;;13.57;52.57
55656;BME280;41530;52.382;5.270;2023-02-02T01:02:58;102278.31;;;13.55;52.56
55656;BME280;41530;52.382;5.270;2023-02-02T01:05:30;102286.91;;;13.59;52.50
55656;BME280;41530;52.382;5.270;2023-02-02T01:07:57;102266.13;;;13.52;52.51
55656;BME280;41530;52.382;5.270;2023-02-02T01:10:24;102288.81;;;13.57;52.21
55656;BME280;41530;52.382;5.270;2023-02-02T01:12:51;102298.63;;;13.54;52.12
55656;BME280;41530;52.382;5.270;2023-02-02T01:15:18;102286.59;;;13.49;52.07
55656;BME280;41530;52.382;5.270;2023-02-02T01:17:45;102282.34;;;13.46;52.37
55656;BME280;41530;52.382;5.270;2023-02-02T01:20:18;102293.78;;;13.47;51.99
55656;BME280;41530;52.382;5.270;2023-02-02T01:22:46;102291.03;;;13.48;52.13
55656;BME280;41530;52.382;5.270;2023-02-02T01:25:13;102296.31;;;13.48;51.97
55656;BME280;41530;52.382;5.270;2023-02-02T01:27:40;102286.97;;;13.43;52.07
55656;BME280;41530;52.382;5.270;2023-02-02T01:30:09;102305.41;;;13.44;52.01
55656;BME280;41530;52.382;5.270;2023-02-02T01:32:38;102294.91;;;13.43;51.89
55656;BME280;41530;52.382;5.270;2023-02-02T01:35:05;102285.38;;;13.40;51.95
55656;BME280;41530;52.382;5.270;2023-02-02T01:37:32;102276.06;;;13.33;51.96
55656;BME280;41530;52.382;5.270;2023-02-02T01:39:58;102293.00;;;13.45;51.88
55656;BME280;41530;52.382;5.270;2023-02-02T01:42:25;102283.75;;;13.38;51.95
55656;BME280;41530;52.382;5.270;2023-02-02T01:45:10;102300.28;;;13.41;51.76
55656;BME280;41530;52.382;5.270;2023-02-02T01:47:44;102310.09;;;13.39;51.89
55656;BME280;41530;52.382;5.270;2023-02-02T01:50:14;102300.28;;;13.41;52.07
55656;BME280;41530;52.382;5.270;2023-02-02T01:52:46;102305.56;;;13.41;52.04
55656;BME280;41530;52.382;5.270;2023-02-02T01:55:16;102304.81;;;13.39;52.03
55656;BME280;41530;52.382;5.270;2023-02-02T01:57:57;102298.84;;;13.36;52.29
55656;BME280;41530;52.382;5.270;2023-02-02T02:00:25;102305.91;;;13.35;52.18
55656;BME280;41530;52.382;5.270;2023-02-02T02:02:57;102306.75;;;13.36;52.44
55656;BME280;41530;52.382;5.270;2023-02-02T02:05:29;102302.50;;;13.33;52.65
55656;BME280;41530;52.382;5.270;2023-02-02T02:08:03;102287.78;;;13.29;52.68
55656;BME280;41530;52.382;5.270;2023-02-02T02:10:31;102287.41;;;13.35;52.58
55656;BME280;41530;52.382;5.270;2023-02-02T02:12:59;102290.75;;;13.39;52.81
55656;BME280;41530;52.382;5.270;2023-02-02T02:15:27;102287.50;;;13.34;52.93
55656;BME280;41530;52.382;5.270;2023-02-02T02:27:13;102280.34;;;13.36;53.42
55656;BME280;41530;52.382;5.270;2023-02-02T02:35:40;102270.78;;;13.33;53.44
55656;BME280;41530;52.382;5.270;2023-02-02T02:38:35;102260.31;;;13.32;53.64
55656;BME280;41530;52.382;5.270;2023-02-02T02:41:03;102269.94;;;13.33;53.42
55656;BME280;41530;52.382;5.270;2023-02-02T02:43:37;102267.28;;;13.33;53.67
55656;BME280;41530;52.382;5.270;2023-02-02T02:46:06;102271.72;;;13.32;53.56
55656;BME280;41530;52.382;5.270;2023-02-02T02:48:34;102270.78;;;13.33;53.65
55656;BME280;41530;52.382;5.270;2023-02-02T02:51:37;102269.94;;;13.33;54.09
55656;BME280;41530;52.382;5.270;2023-02-02T02:53:55;102270.88;;;13.32;54.00
55656;BME280;41530;52.382;5.270;2023-02-02T02:56:31;102271.00;;;13.30;54.17
55656;BME280;41530;52.382;5.270;2023-02-02T02:59:20;102295.72;;;13.29;54.24
55656;BME280;41530;52.382;5.270;2023-02-02T03:04:38;102288.72;;;13.28;54.12
55656;BME280;41530;52.382;5.270;2023-02-02T03:07:10;102293.25;;;13.26;54.18
55656;BME280;41530;52.382;5.270;2023-02-02T03:09:41;102298.53;;;13.26;53.82
55656;BME280;41530;52.382;5.270;2023-02-02T03:12:10;102303.81;;;13.26;53.83
55656;BME280;41530;52.382;5.270;2023-02-02T03:14:37;102294.25;;;13.24;53.80
55656;BME280;41530;52.382;5.270;2023-02-02T03:17:09;102298.69;;;13.23;53.95
55656;BME280;41530;52.382;5.270;2023-02-02T03:19:36;102292.56;;;13.23;53.85
55656;BME280;41530;52.382;5.270;2023-02-02T03:22:03;102310.19;;;13.22;53.95
55656;BME280;41530;52.382;5.270;2023-02-02T03:24:30;102286.50;;;13.20;53.84
55656;BME280;41530;52.382;5.270;2023-02-02T03:26:57;102297.06;;;13.20;53.78
55656;BME280;41530;52.382;5.270;2023-02-02T03:29:24;102303.31;;;13.19;53.71
55656;BME280;41530;52.382;5.270;2023-02-02T03:31:51;102302.44;;;13.19;53.71
55656;BME280;41530;52.382;5.270;2023-02-02T03:34:17;102290.09;;;13.19;53.85
55656;BME280;41530;52.382;5.270;2023-02-02T03:36:45;102299.81;;;13.19;53.78
55656;BME280;41530;52.382;5.270;2023-02-02T03:39:12;102301.72;;;13.17;53.85
55656;BME280;41530;52.382;5.270;2023-02-02T03:41:39;102294.72;;;13.16;53.70
55656;BME280;41530;52.382;5.270;2023-02-02T03:44:05;102298.22;;;13.16;53.92
55656;BME280;41530;52.382;5.270;2023-02-02T03:46:32;102289.44;;;13.16;54.02
55656;BME280;41530;52.382;5.270;2023-02-02T03:48:59;102280.72;;;13.14;54.13
55656;BME280;41530;52.382;5.270;2023-02-02T03:51:26;102295.88;;;13.10;54.04
55656;BME280;41530;52.382;5.270;2023-02-02T03:53:53;102297.44;;;13.14;54.22
55656;BME280;41530;52.382;5.270;2023-02-02T03:56:20;102268.44;;;13.13;53.90
55656;BME280;41530;52.382;5.270;2023-02-02T03:58:47;102264.94;;;13.12;54.12
55656;BME280;41530;52.382;5.270;2023-02-02T04:01:14;102271.06;;;13.13;54.06
55656;BME280;41530;52.382;5.270;2023-02-02T04:03:41;102271.06;;;13.13;54.22
55656;BME280;41530;52.382;5.270;2023-02-02T04:06:08;102278.94;;;13.14;54.06
55656;BME280;41530;52.382;5.270;2023-02-02T04:08:35;102268.44;;;13.13;54.17
55656;BME280;41530;52.382;5.270;2023-02-02T04:11:02;102276.44;;;13.11;54.25
55656;BME280;41530;52.382;5.270;2023-02-02T04:13:28;102290.50;;;13.12;54.17
55656;BME280;41530;52.382;5.270;2023-02-02T04:15:59;102303.72;;;13.12;54.33
55656;BME280;41530;52.382;5.270;2023-02-02T04:18:27;102279.16;;;13.10;53.99
55656;BME280;41530;52.382;5.270;2023-02-02T04:20:58;102281.72;;;13.11;54.03
55656;BME280;41530;52.382;5.270;2023-02-02T04:23:26;102272.94;;;13.11;54.19
55656;BME280;41530;52.382;5.270;2023-02-02T04:25:53;102287.94;;;13.10;54.24
55656;BME280;41530;52.382;5.270;2023-02-02T04:28:20;102290.69;;;13.09;53.92
55656;BME280;41530;52.382;5.270;2023-02-02T04:30:49;102292.47;;;13.08;53.84
55656;BME280;41530;52.382;5.270;2023-02-02T04:33:16;102310.03;;;13.09;54.15
55656;BME280;41530;52.382;5.270;2023-02-02T04:35:43;102301.25;;;13.09;54.07
55656;BME280;41530;52.382;5.270;2023-02-02T04:38:10;102306.69;;;13.06;54.09
55656;BME280;41530;52.382;5.270;2023-02-02T04:40:45;102309.25;;;13.07;54.33
55656;BME280;41530;52.382;5.270;2023-02-02T04:43:13;102303.19;;;13.05;54.02
55656;BME280;41530;52.382;5.270;2023-02-02T04:45:41;102303.97;;;13.07;54.18
55656;BME280;41530;52.382;5.270;2023-02-02T04:48:07;102309.34;;;13.06;53.87
55656;BME280;41530;52.382;5.270;2023-02-02T04:50:35;102301.31;;;13.07;54.13
55656;BME280;41530;52.382;5.270;2023-02-02T04:53:02;102293.50;;;13.06;54.15
55656;BME280;41530;52.382;5.270;2023-02-02T04:55:29;102296.97;;;13.06;54.16
55656;BME280;41530;52.382;5.270;2023-02-02T04:57:56;102296.97;;;13.06;54.13
55656;BME280;41530;52.382;5.270;2023-02-02T05:00:23;102302.25;;;13.06;54.18
55656;BME280;41530;52.382;5.270;2023-02-02T05:02:50;102310.19;;;13.06;54.25
55656;BME280;41530;52.382;5.270;2023-02-02T05:05:16;102306.81;;;13.04;54.33
55656;BME280;41530;52.382;5.270;2023-02-02T05:07:43;102301.53;;;13.04;54.23
55656;BME280;41530;52.382;5.270;2023-02-02T05:10:11;102306.81;;;13.04;54.39
55656;BME280;41530;52.382;5.270;2023-02-02T05:12:37;102311.25;;;13.04;54.28
55656;BME280;41530;52.382;5.270;2023-02-02T05:15:05;102306.81;;;13.04;54.32
55656;BME280;41530;52.382;5.270;2023-02-02T05:17:33;102306.03;;;13.02;54.32
55656;BME280;41530;52.382;5.270;2023-02-02T05:20:00;102309.53;;;13.03;54.34
55656;BME280;41530;52.382;5.270;2023-02-02T05:22:26;102309.53;;;13.03;54.17
55656;BME280;41530;52.382;5.270;2023-02-02T05:24:53;102306.97;;;13.01;54.33
55656;BME280;41530;52.382;5.270;2023-02-02T05:27:20;102308.75;;;13.01;54.37
55656;BME280;41530;52.382;5.270;2023-02-02T05:29:47;102311.31;;;13.02;54.06
55656;BME280;41530;52.382;5.270;2023-02-02T05:32:13;102319.34;;;13.01;54.44
55656;BME280;41530;52.382;5.270;2023-02-02T05:34:41;102311.50;;;12.99;54.37
55656;BME280;41530;52.382;5.270;2023-02-02T05:37:07;102308.00;;;12.99;54.43
55656;BME280;41530;52.382;5.270;2023-02-02T05:39:34;102324.63;;;13.01;54.57
55656;BME280;41530;52.382;5.270;2023-02-02T05:42:01;102329.03;;;13.00;54.55
55656;BME280;41530;52.382;5.270;2023-02-02T05:44:28;102322.06;;;12.99;54.56
55656;BME280;41530;52.382;5.270;2023-02-02T05:46:54;102329.13;;;12.99;54.42
55656;BME280;41530;52.382;5.270;2023-02-02T05:49:22;102316.94;;;12.96;54.57
55656;BME280;41530;52.382;5.270;2023-02-02T05:51:51;102333.56;;;12.98;54.78
55656;BME280;41530;52.382;5.270;2023-02-02T05:54:19;102332.72;;;12.98;54.49
55656;BME280;41530;52.382;5.270;2023-02-02T05:56:47;102326.56;;;12.97;54.63
55656;BME280;41530;52.382;5.270;2023-02-02T05:59:15;102325.72;;;12.97;54.79
55656;BME280;41530;52.382;5.270;2023-02-02T06:01:44;102335.44;;;12.96;54.81
55656;BME280;41530;52.382;5.270;2023-02-02T06:04:11;102332.88;;;12.95;54.68
55656;BME280;41530;52.382;5.270;2023-02-02T06:06:38;102330.16;;;12.96;54.85
55656;BME280;41530;52.382;5.270;2023-02-02T06:09:06;102328.44;;;12.95;54.73
55656;BME280;41530;52.382;5.270;2023-02-02T06:11:33;102332.88;;;12.95;55.00
55656;BME280;41530;52.382;5.270;2023-02-02T06:14:00;102336.38;;;12.95;55.11
55656;BME280;41530;52.382;5.270;2023-02-02T06:16:27;102325.03;;;12.93;54.87
55656;BME280;41530;52.382;5.270;2023-02-02T06:18:54;102331.00;;;12.97;54.72
55656;BME280;41530;52.382;5.270;2023-02-02T06:21:21;102335.28;;;12.99;54.80
55656;BME280;41530;52.382;5.270;2023-02-02T06:23:50;102344.72;;;13.03;54.75
55656;BME280;41530;52.382;5.270;2023-02-02T06:26:18;102339.25;;;13.06;54.80
55656;BME280;41530;52.382;5.270;2023-02-02T06:28:52;102340.97;;;13.07;55.20
55656;BME280;41530;52.382;5.270;2023-02-02T06:31:19;102344.28;;;13.11;54.57
55656;BME280;41530;52.382;5.270;2023-02-02T06:33:51;102348.56;;;13.13;54.77
55656;BME280;41530;52.382;5.270;2023-02-02T06:36:18;102353.78;;;13.15;54.61
55656;BME280;41530;52.382;5.270;2023-02-02T06:38:48;102352.94;;;13.14;54.70
55656;BME280;41530;52.382;5.270;2023-02-02T06:41:16;102354.66;;;13.15;54.53
55656;BME280;41530;52.382;5.270;2023-02-02T06:43:43;102365.88;;;13.19;54.51
55656;BME280;41530;52.382;5.270;2023-02-02T06:46:11;102364.94;;;13.20;54.45
55656;BME280;41530;52.382;5.270;2023-02-02T06:48:38;102372.84;;;13.20;54.21
55656;BME280;41530;52.382;5.270;2023-02-02T06:51:05;102371.00;;;13.22;54.57
55656;BME280;41530;52.382;5.270;2023-02-02T06:53:32;102371.00;;;13.22;54.63
55656;BME280;41530;52.382;5.270;2023-02-02T06:56:04;102373.56;;;13.24;54.32
55656;BME280;41530;52.382;5.270;2023-02-02T06:58:32;102374.41;;;13.24;54.62
55656;BME280;41530;52.382;5.270;2023-02-02T07:01:04;102355.91;;;13.24;54.65
55656;BME280;41530;52.382;5.270;2023-02-02T07:03:32;102359.31;;;13.26;54.33
55656;BME280;41530;52.382;5.270;2023-02-02T07:06:09;102354.88;;;13.27;55.00
55656;BME280;41530;52.382;5.270;2023-02-02T07:08:36;102369.81;;;13.28;54.65
55656;BME280;41530;52.382;5.270;2023-02-02T07:11:02;102367.94;;;13.30;54.56
55656;BME280;41530;52.382;5.270;2023-02-02T07:13:41;102369.72;;;13.29;54.74
55656;BME280;41530;52.382;5.270;2023-02-02T07:16:07;102382.00;;;13.30;54.90
55656;BME280;41530;52.382;5.270;2023-02-02T07:18:35;102377.56;;;13.31;54.61
55656;BME280;41530;52.382;5.270;2023-02-02T07:21:02;102382.00;;;13.30;54.62
55656;BME280;41530;52.382;5.270;2023-02-02T07:23:29;102378.41;;;13.31;54.84
55656;BME280;41530;52.382;5.270;2023-02-02T07:26:07;102381.06;;;13.31;54.96
55656;BME280;41530;52.382;5.270;2023-02-02T07:28:35;102383.69;;;13.31;54.91
55656;BME280;41530;52.382;5.270;2023-02-02T07:31:34;102385.38;;;13.32;55.21
55656;BME280;41530;52.382;5.270;2023-02-02T07:34:02;102399.38;;;13.34;54.87
55656;BME280;41530;52.382;5.270;2023-02-02T07:36:29;102394.16;;;13.33;55.00
55656;BME280;41530;52.382;5.270;2023-02-02T07:38:56;102392.38;;;13.33;54.67
55656;BME280;41530;52.382;5.270;2023-02-02T07:41:23;102407.22;;;13.36;54.70
55656;BME280;41530;52.382;5.270;2023-02-02T07:43:50;102404.56;;;13.36;54.93
55656;BME280;41530;52.382;5.270;2023-02-02T07:46:18;102417.78;;;13.36;54.96
55656;BME280;41530;52.382;5.270;2023-02-02T07:48:45;102406.34;;;13.35;55.05
55656;BME280;41530;52.382;5.270;2023-02-02T07:51:14;102412.34;;;13.39;54.93
55656;BME280;41530;52.382;5.270;2023-02-02T07:53:46;102423.00;;;13.37;55.12
55656;BME280;41530;52.382;5.270;2023-02-02T07:56:22;102422.91;;;13.39;55.05
55656;BME280;41530;52.382;5.270;2023-02-02T07:58:51;102417.53;;;13.40;55.15
55656;BME280;41530;52.382;5.270;2023-02-02T08:01:18;102421.88;;;13.41;55.17
55656;BME280;41530;52.382;5.270;2023-02-02T08:03:49;102413.97;;;13.41;54.90
55656;BME280;41530;52.382;5.270;2023-02-02T08:06:25;102416.59;;;13.41;55.37
55656;BME280;41530;52.382;5.270;2023-02-02T08:08:53;102417.47;;;13.42;55.74
55656;BME280;41530;52.382;5.270;2023-02-02T08:11:21;102423.50;;;13.44;55.07
55656;BME280;41530;52.382;5.270;2023-02-02T08:13:50;102425.03;;;13.48;55.27
55656;BME280;41530;52.382;5.270;2023-02-02T08:16:18;102431.84;;;13.52;55.22
55656;BME280;41530;52.382;5.270;2023-02-02T08:18:45;102434.16;;;13.58;55.42
55656;BME280;41530;52.382;5.270;2023-02-02T08:21:13;102440.09;;;13.62;55.14
55656;BME280;41530;52.382;5.270;2023-02-02T08:23:41;102443.44;;;13.65;55.25
55656;BME280;41530;52.382;5.270;2023-02-02T08:26:19;102445.06;;;13.68;55.72
55656;BME280;41530;52.382;5.270;2023-02-02T08:28:48;102449.22;;;13.72;55.12
55656;BME280;41530;52.382;5.270;2023-02-02T08:31:26;102457.81;;;13.75;55.38
55656;BME280;41530;52.382;5.270;2023-02-02T08:33:55;102453.22;;;13.79;55.13
55656;BME280;41530;52.382;5.270;2023-02-02T08:36:24;102457.56;;;13.80;55.04
55656;BME280;41530;52.382;5.270;2023-02-02T08:38:51;102459.13;;;13.84;55.29
55656;BME280;41530;52.382;5.270;2023-02-02T08:41:21;102458.06;;;13.86;55.34
55656;BME280;41530;52.382;5.270;2023-02-02T08:43:49;102462.31;;;13.89;55.23
55656;BME280;41530;52.382;5.270;2023-02-02T08:46:18;102460.44;;;13.91;55.39
55656;BME280;41530;52.382;5.270;2023-02-02T08:48:46;102461.31;;;13.91;55.19
55656;BME280;41530;52.382;5.270;2023-02-02T08:51:17;102463.78;;;13.95;55.20
55656;BME280;41530;52.382;5.270;2023-02-02T08:53:44;102466.34;;;13.96;55.05
55656;BME280;41530;52.382;5.270;2023-02-02T08:56:14;102472.66;;;13.94;55.24
55656;BME280;41530;52.382;5.270;2023-02-02T08:58:59;102479.47;;;13.98;55.14
55656;BME280;41530;52.382;5.270;2023-02-02T09:01:31;102481.28;;;13.97;55.25
55656;BME280;41530;52.382;5.270;2023-02-02T09:04:06;102494.31;;;14.00;55.26
55656;BME280;41530;52.382;5.270;2023-02-02T09:06:36;102495.16;;;14.01;55.12
55656;BME280;41530;52.382;5.270;2023-02-02T09:09:05;102503.00;;;14.02;55.22
55656;BME280;41530;52.382;5.270;2023-02-02T09:11:33;102494.31;;;14.00;55.31
55656;BME280;41530;52.382;5.270;2023-02-02T09:14:01;102502.16;;;14.02;55.24
55656;BME280;41530;52.382;5.270;2023-02-02T09:16:28;102509.06;;;14.04;54.87
55656;BME280;41530;52.382;5.270;2023-02-02T09:18:56;102505.56;;;14.04;54.68
55656;BME280;41530;52.382;5.270;2023-02-02T09:21:22;102514.28;;;14.06;54.99
55656;BME280;41530;52.382;5.270;2023-02-02T09:23:52;102515.13;;;14.06;55.14
55656;BME280;41530;52.382;5.270;2023-02-02T09:26:22;102515.97;;;14.07;55.04
55656;BME280;41530;52.382;5.270;2023-02-02T09:28:55;102524.78;;;14.07;55.24
55656;BME280;41530;52.382;5.270;2023-02-02T09:31:22;102519.50;;;14.07;55.17
55656;BME280;41530;52.382;5.270;2023-02-02T09:33:49;102521.28;;;14.07;55.24
55656;BME280;41530;52.382;5.270;2023-02-02T09:36:18;102515.03;;;14.08;55.30
55656;BME280;41530;52.382;5.270;2023-02-02T09:38:49;102510.78;;;14.05;55.29
55656;BME280;41530;52.382;5.270;2023-02-02T09:44:42;102528.19;;;14.09;55.40
55656;BME280;41530;52.382;5.270;2023-02-02T09:47:20;102521.09;;;14.10;55.31
55656;BME280;41530;52.382;5.270;2023-02-02T09:50:19;102528.19;;;14.09;55.21
55656;BME280;41530;52.382;5.270;2023-02-02T09:55:26;102527.25;;;14.10;54.86
55656;BME280;41530;52.382;5.270;2023-02-02T09:58:02;102532.56;;;14.10;55.27
55656;BME280;41530;52.382;5.270;2023-02-02T10:00:34;102540.38;;;14.12;55.22
55656;BME280;41530;52.382;5.270;2023-02-02T10:03:20;102537.72;;;14.12;55.40
55656;BME280;41530;52.382;5.270;2023-02-02T10:06:05;102540.56;;;14.09;54.87
55656;BME280;41530;52.382;5.270;2023-02-02T10:08:42;102543.13;;;14.10;55.20
55656;BME280;41530;52.382;5.270;2023-02-02T10:11:31;102550.13;;;14.11;55.01
55656;BME280;41530;52.382;5.270;2023-02-02T10:14:05;102559.00;;;14.10;55.12
55656;BME280;41530;52.382;5.270;2023-02-02T10:16:34;102559.88;;;14.11;55.07
55656;BME280;41530;52.382;5.270;2023-02-02T10:19:04;102552.19;;;14.06;54.94
55656;BME280;41530;52.382;5.270;2023-02-02T10:21:38;102553.81;;;14.09;54.98
55656;BME280;41530;52.382;5.270;2023-02-02T10:24:15;102554.66;;;14.09;55.11
55656;BME280;41530;52.382;5.270;2023-02-02T10:26:55;102564.19;;;14.12;54.92
55656;BME280;41530;52.382;5.270;2023-02-02T10:32:21;102567.69;;;14.12;54.94
55656;BME280;41530;52.382;5.270;2023-02-02T10:35:03;102568.66;;;14.11;55.10
55656;BME280;41530;52.382;5.270;2023-02-02T10:37:51;102568.66;;;14.11;54.84
55656;BME280;41530;52.382;5.270;2023-02-02T10:46:42;102572.25;;;14.10;55.18
55656;BME280;41530;52.382;5.270;2023-02-02T10:51:58;102570.53;;;14.09;55.18
55656;BME280;41530;52.382;5.270;2023-02-02T10:54:46;102572.13;;;14.12;55.40
55656;BME280;41530;52.382;5.270;2023-02-02T10:57:31;102573.00;;;14.12;55.04
55656;BME280;41530;52.382;5.270;2023-02-02T11:00:25;102565.91;;;14.13;55.50
55656;BME280;41530;52.382;5.270;2023-02-02T11:02:55;102567.69;;;14.12;55.38
55656;BME280;41530;52.382;5.270;2023-02-02T11:05:24;102573.84;;;14.13;54.75
55656;BME280;41530;52.382;5.270;2023-02-02T11:10:42;102573.84;;;14.13;55.23
55656;BME280;41530;52.382;5.270;2023-02-02T11:13:18;102575.56;;;14.14;54.93
55656;BME280;41530;52.382;5.270;2023-02-02T11:15:48;102578.19;;;14.14;55.09
55656;BME280;41530;52.382;5.270;2023-02-02T11:18:33;102573.00;;;14.12;55.33
55656;BME280;41530;52.382;5.270;2023-02-02T11:21:00;102571.09;;;14.14;54.89
55656;BME280;41530;52.382;5.270;2023-02-02T11:23:27;102567.63;;;14.14;55.04
55656;BME280;41530;52.382;5.270;2023-02-02T11:25:59;102572.91;;;14.14;55.13
55656;BME280;41530;52.382;5.270;2023-02-02T11:28:31;102571.97;;;14.15;55.45
55656;BME280;41530;52.382;5.270;2023-02-02T11:30:59;102574.69;;;14.13;55.25
55656;BME280;41530;52.382;5.270;2023-02-02T11:33:34;102583.41;;;14.15;55.39
55656;BME280;41530;52.382;5.270;2023-02-02T11:36:17;102579.06;;;14.14;55.25
55656;BME280;41530;52.382;5.270;2023-02-02T11:38:44;102585.19;;;14.15;55.32
55656;BME280;41530;52.382;5.270;2023-02-02T11:41:12;102575.38;;;14.17;55.05
55656;BME280;41530;52.382;5.270;2023-02-02T11:43:51;102570.25;;;14.14;55.32
55656;BME280;41530;52.382;5.270;2023-02-02T11:46:21;102574.63;;;14.15;54.93
55656;BME280;41530;52.382;5.270;2023-02-02T11:51:25;102571.88;;;14.16;55.08
55656;BME280;41530;52.382;5.270;2023-02-02T11:54:05;102573.59;;;14.17;54.99
55656;BME280;41530;52.382;5.270;2023-02-02T11:56:36;102567.53;;;14.15;55.17
55656;BME280;41530;52.382;5.270;2023-02-02T11:59:04;102574.53;;;14.16;55.44
55656;BME280;41530;52.382;5.270;2023-02-02T12:01:34;102570.94;;;14.17;55.13
55656;BME280;41530;52.382;5.270;2023-02-02T12:04:21;102578.03;;;14.17;55.24
55656;BME280;41530;52.382;5.270;2023-02-02T12:06:49;102567.44;;;14.17;55.17
55656;BME280;41530;52.382;5.270;2023-02-02T12:09:20;102570.09;;;14.17;55.38
55656;BME280;41530;52.382;5.270;2023-02-02T12:11:51;102569.16;;;14.18;55.45
55656;BME280;41530;52.382;5.270;2023-02-02T12:22:43;102556.84;;;14.17;55.85
55656;BME280;41530;52.382;5.270;2023-02-02T12:27:54;102553.28;;;14.18;55.42
55656;BME280;41530;52.382;5.270;2023-02-02T12:30:42;102552.31;;;14.19;55.42
55656;BME280;41530;52.382;5.270;2023-02-02T12:44:25;102554.97;;;14.19;55.88
55656;BME280;41530;52.382;5.270;2023-02-02T12:58:04;102541.75;;;14.19;56.04
55656;BME280;41530;52.382;5.270;2023-02-02T13:12:13;102545.25;;;14.19;55.56
55656;BME280;41530;52.382;5.270;2023-02-02T13:14:51;102553.19;;;14.19;55.85
55656;BME280;41530;52.382;5.270;2023-02-02T13:17:28;102559.34;;;14.20;55.83
55656;BME280;41530;52.382;5.270;2023-02-02T13:19:59;102559.34;;;14.20;55.67
55656;BME280;41530;52.382;5.270;2023-02-02T13:22:34;102562.84;;;14.20;55.87
55656;BME280;41530;52.382;5.270;2023-02-02T13:25:06;102555.75;;;14.21;55.83
55656;BME280;41530;52.382;5.270;2023-02-02T13:27:35;102555.75;;;14.21;55.57
55656;BME280;41530;52.382;5.270;2023-02-02T13:30:13;102554.88;;;14.20;55.60
55656;BME280;41530;52.382;5.270;2023-02-02T13:32:45;102560.19;;;14.20;55.74
55656;BME280;41530;52.382;5.270;2023-02-02T13:35:16;102554.81;;;14.22;55.52
55656;BME280;41530;52.382;5.270;2023-02-02T13:37:54;102563.69;;;14.21;55.53
55656;BME280;41530;52.382;5.270;2023-02-02T13:40:33;102560.09;;;14.22;55.39
55656;BME280;41530;52.382;5.270;2023-02-02T13:46:07;102553.94;;;14.21;55.38
55656;BME280;41530;52.382;5.270;2023-02-02T13:48:56;102554.81;;;14.22;55.44
55656;BME280;41530;52.382;5.270;2023-02-02T14:00:22;102554.81;;;14.22;55.63
55656;BME280;41530;52.382;5.270;2023-02-02T14:02:45;102563.59;;;14.22;55.50
55656;BME280;41530;52.382;5.270;2023-02-02T14:05:36;102557.38;;;14.23;55.66
55656;BME280;41530;52.382;5.270;2023-02-02T14:08:07;102566.16;;;14.24;56.04
55656;BME280;41530;52.382;5.270;2023-02-02T14:13:21;102566.16;;;14.24;55.55
55656;BME280;41530;52.382;5.270;2023-02-02T14:16:22;102571.47;;;14.24;55.85
55656;BME280;41530;52.382;5.270;2023-02-02T14:26:47;102553.00;;;14.22;56.08
55656;BME280;41530;52.382;5.270;2023-02-02T14:34:55;102569.75;;;14.23;55.43
55656;BME280;41530;52.382;5.270;2023-02-02T14:45:31;102576.63;;;14.25;55.87
55656;BME280;41530;52.382;5.270;2023-02-02T14:53:21;102574.84;;;14.26;55.93
55656;BME280;41530;52.382;5.270;2023-02-02T14:55:57;102569.56;;;14.26;55.88
55656;BME280;41530;52.382;5.270;2023-02-02T15:06:33;102586.28;;;14.26;55.81
55656;BME280;41530;52.382;5.270;2023-02-02T15:14:37;102597.81;;;14.25;55.80
55656;BME280;41530;52.382;5.270;2023-02-02T15:19:44;102593.38;;;14.26;55.80
55656;BME280;41530;52.382;5.270;2023-02-02T15:24:50;102597.81;;;14.25;55.76
55656;BME280;41530;52.382;5.270;2023-02-02T15:27:21;102598.66;;;14.26;55.75
55656;BME280;41530;52.382;5.270;2023-02-02T15:29:55;102604.81;;;14.26;55.90
55656;BME280;41530;52.382;5.270;2023-02-02T15:32:25;102608.31;;;14.27;55.63
55656;BME280;41530;52.382;5.270;2023-02-02T15:34:57;102608.31;;;14.27;56.06
55656;BME280;41530;52.382;5.270;2023-02-02T15:37:31;102604.81;;;14.26;55.71